Wetterdaten: Woche 03.09.12 - 09.09.12 (KW36)
Datum Zeit Temp. Innen Temp. Aussen UV X Diff Temp. Feuchte Inne Feuchte Auss Sonnenschein Luftdruck Regen ab 0,1 Wind Sonnenschein T Regendauer Windben
03.09.2012 00:00 22,8 C 14,3 C 0,0 UV-I 0,0 C 54 % 88 % 0 % 1024,7 hPa 0,0 l/m 0,0 km/h (0 Bft) 0,00 h 0,00 h 0,0 km/h (0 Bft)
03.09.2012 01:00 22,6 C 13,4 C 0,0 UV-I 0,0 C 54 % 90 % 0 % 1024,9 hPa 0,0 l/m 0,0 km/h (0 Bft) 0,00 h 0,00 h 0,0 km/h (0 Bft)
03.09.2012 02:00 22,4 C 13,0 C 0,0 UV-I 0,0 C 55 % 92 % 0 % 1024,6 hPa 0,0 l/m 0,0 km/h (0 Bft) 0,00 h 0,00 h 0,0 km/h (0 Bft)
03.09.2012 03:00 22,2 C 12,6 C 0,0 UV-I 0,0 C 55 % 92 % 0 % 1024,5 hPa 0,0 l/m 0,0 km/h (0 Bft) 0,00 h 0,00 h 0,0 km/h (0 Bft)
03.09.2012 04:00 22,1 C 12,0 C 0,0 UV-I 0,0 C 55 % 93 % 0 % 1024,5 hPa 0,0 l/m 0,0 km/h (0 Bft) 0,00 h 0,00 h 0,0 km/h (0 Bft)
03.09.2012 05:00 22,0 C 11,8 C 0,0 UV-I 0,0 C 56 % 94 % 0 % 1024,5 hPa 0,0 l/m 0,0 km/h (0 Bft) 0,00 h 0,00 h 0,0 km/h (0 Bft)
03.09.2012 06:00 21,9 C 12,3 C 0,0 UV-I 0,0 C 56 % 95 % 0 % 1024,4 hPa 0,0 l/m 0,0 km/h (0 Bft) 0,00 h 0,00 h 0,0 km/h (0 Bft)
03.09.2012 07:00 21,9 C 12,6 C 0,0 UV-I 0,0 C 56 % 95 % 1 % 1024,7 hPa 0,0 l/m 0,0 km/h (0 Bft) 0,00 h 0,00 h 0,0 km/h (0 Bft)
03.09.2012 08:00 22,0 C 13,6 C 0,0 UV-I 0,8 C 57 % 96 % 23 % 1025,1 hPa 0,0 l/m 0,0 km/h (0 Bft) 0,00 h 0,00 h 0,0 km/h (0 Bft)
03.09.2012 09:00 22,3 C 15,2 C 0,3 UV-I 2,4 C 57 % 96 % 69 % 1025,0 hPa 0,0 l/m 1,0 km/h (0 Bft) 0,10 h 0,00 h 2,0 km/h (1 Bft)
03.09.2012 10:00 22,9 C 17,3 C 1,4 UV-I 4,9 C 56 % 93 % 99 % 1024,9 hPa 0,0 l/m 1,9 km/h (1 Bft) 1,00 h 0,00 h 4,4 km/h (1 Bft)
03.09.2012 11:00 23,4 C 18,8 C 1,6 UV-I 5,2 C 55 % 85 % 100 % 1024,8 hPa 0,0 l/m 2,7 km/h (1 Bft) 1,00 h 0,00 h 4,3 km/h (1 Bft)
03.09.2012 12:00 23,8 C 19,7 C 1,6 UV-I 4,7 C 54 % 79 % 100 % 1024,8 hPa 0,0 l/m 3,7 km/h (1 Bft) 1,00 h 0,00 h 5,2 km/h (1 Bft)
03.09.2012 13:00 24,1 C 20,0 C 1,2 UV-I 3,1 C 53 % 77 % 87 % 1024,7 hPa 0,0 l/m 5,6 km/h (1 Bft) 0,67 h 0,00 h 7,7 km/h (2 Bft)
03.09.2012 14:00 24,2 C 20,0 C 0,7 UV-I 2,2 C 53 % 77 % 62 % 1024,5 hPa 0,0 l/m 5,1 km/h (1 Bft) 0,23 h 0,00 h 7,7 km/h (2 Bft)
03.09.2012 15:00 24,1 C 20,2 C 1,0 UV-I 2,5 C 53 % 76 % 70 % 1024,1 hPa 0,0 l/m 4,0 km/h (1 Bft) 0,13 h 0,00 h 6,0 km/h (2 Bft)
03.09.2012 16:00 25,1 C 21,5 C 3,0 UV-I 5,3 C 52 % 72 % 100 % 1022,9 hPa 0,0 l/m 4,5 km/h (1 Bft) 1,00 h 0,00 h 5,5 km/h (1 Bft)
03.09.2012 17:00 26,2 C 22,1 C 2,0 UV-I 4,7 C 49 % 67 % 99 % 1022,8 hPa 0,0 l/m 8,1 km/h (2 Bft) 1,00 h 0,00 h 10,2 km/h (2 Bft)
03.09.2012 18:00 25,6 C 21,7 C 0,6 UV-I 0,6 C 49 % 64 % 17 % 1023,0 hPa 0,0 l/m 7,8 km/h (2 Bft) 0,03 h 0,00 h 10,5 km/h (2 Bft)
03.09.2012 19:00 24,9 C 20,8 C 0,0 UV-I 0,0 C 50 % 66 % 0 % 1023,0 hPa 0,0 l/m 4,7 km/h (1 Bft) 0,00 h 0,00 h 5,1 km/h (1 Bft)
03.09.2012 20:00 24,3 C 18,9 C 0,0 UV-I 0,0 C 52 % 72 % 0 % 1023,3 hPa 0,0 l/m 0,1 km/h (0 Bft) 0,00 h 0,00 h 0,0 km/h (0 Bft)
03.09.2012 21:00 23,9 C 16,5 C 0,0 UV-I 0,0 C 53 % 80 % 0 % 1023,7 hPa 0,0 l/m 0,0 km/h (0 Bft) 0,00 h 0,00 h 0,0 km/h (0 Bft)
03.09.2012 22:00 23,4 C 15,1 C 0,0 UV-I 0,0 C 54 % 85 % 0 % 1023,8 hPa 0,0 l/m 0,0 km/h (0 Bft) 0,00 h 0,00 h 0,0 km/h (0 Bft)
03.09.2012 23:00 23,1 C 14,1 C 0,0 UV-I 0,0 C 55 % 88 % 0 % 1024,1 hPa 0,0 l/m 0,0 km/h (0 Bft) 0,00 h 0,03 h 0,0 km/h (0 Bft)
04.09.2012 00:00 22,8 C 13,4 C 0,0 UV-I 0,0 C 56 % 90 % 0 % 1023,9 hPa 0,0 l/m 0,0 km/h (0 Bft) 0,00 h 0,00 h 0,0 km/h (0 Bft)
04.09.2012 01:00 22,6 C 12,9 C 0,0 UV-I 0,0 C 56 % 92 % 0 % 1023,9 hPa 0,0 l/m 0,0 km/h (0 Bft) 0,00 h 0,00 h 0,0 km/h (0 Bft)
04.09.2012 02:00 22,4 C 12,2 C 0,0 UV-I 0,0 C 57 % 93 % 0 % 1023,7 hPa 0,0 l/m 0,0 km/h (0 Bft) 0,00 h 0,03 h 0,0 km/h (0 Bft)
04.09.2012 03:00 22,2 C 11,8 C 0,0 UV-I 0,0 C 57 % 94 % 0 % 1023,5 hPa 0,0 l/m 0,0 km/h (0 Bft) 0,00 h 0,00 h 0,0 km/h (0 Bft)
04.09.2012 04:00 22,1 C 11,4 C 0,0 UV-I 0,0 C 57 % 94 % 0 % 1023,1 hPa 0,0 l/m 0,0 km/h (0 Bft) 0,00 h 0,00 h 0,0 km/h (0 Bft)
04.09.2012 05:00 22,0 C 10,9 C 0,0 UV-I 0,0 C 57 % 95 % 0 % 1023,0 hPa 0,0 l/m 0,0 km/h (0 Bft) 0,00 h 0,00 h 0,0 km/h (0 Bft)
04.09.2012 06:00 21,8 C 10,6 C 0,0 UV-I 0,0 C 56 % 95 % 0 % 1022,8 hPa 0,0 l/m 0,0 km/h (0 Bft) 0,00 h 0,00 h 0,0 km/h (0 Bft)
04.09.2012 07:00 21,7 C 10,4 C 0,0 UV-I 0,0 C 56 % 95 % 0 % 1022,9 hPa 0,0 l/m 0,0 km/h (0 Bft) 0,00 h 0,00 h 0,0 km/h (0 Bft)
04.09.2012 08:00 21,7 C 11,5 C 0,0 UV-I 1,4 C 57 % 96 % 33 % 1023,1 hPa 0,0 l/m 0,0 km/h (0 Bft) 0,23 h 0,00 h 0,0 km/h (0 Bft)
04.09.2012 09:00 21,9 C 14,4 C 0,6 UV-I 7,5 C 58 % 97 % 100 % 1023,0 hPa 0,0 l/m 1,0 km/h (0 Bft) 1,00 h 0,00 h 2,1 km/h (1 Bft)
04.09.2012 10:00 22,1 C 17,7 C 2,1 UV-I 10,0 C 58 % 94 % 100 % 1023,0 hPa 0,0 l/m 0,4 km/h (0 Bft) 1,00 h 0,00 h 0,9 km/h (0 Bft)
04.09.2012 11:00 22,6 C 20,6 C 4,2 UV-I 9,5 C 57 % 80 % 100 % 1022,9 hPa 0,0 l/m 1,6 km/h (1 Bft) 1,00 h 0,00 h 3,0 km/h (1 Bft)
04.09.2012 12:00 23,2 C 22,2 C 3,8 UV-I 8,2 C 55 % 64 % 100 % 1022,5 hPa 0,0 l/m 3,8 km/h (1 Bft) 1,00 h 0,00 h 4,9 km/h (1 Bft)
04.09.2012 13:00 24,1 C 23,7 C 3,9 UV-I 7,8 C 54 % 60 % 100 % 1022,1 hPa 0,0 l/m 2,2 km/h (1 Bft) 1,00 h 0,00 h 4,5 km/h (1 Bft)
04.09.2012 14:00 25,3 C 25,0 C 3,9 UV-I 7,0 C 51 % 55 % 100 % 1023,5 hPa 0,0 l/m 2,6 km/h (1 Bft) 1,00 h 0,00 h 4,6 km/h (1 Bft)
04.09.2012 15:00 25,7 C 25,6 C 4,4 UV-I 6,3 C 49 % 49 % 100 % 1021,8 hPa 0,0 l/m 4,4 km/h (1 Bft) 1,00 h 0,00 h 7,2 km/h (2 Bft)
04.09.2012 16:00 25,2 C 25,5 C 4,1 UV-I 5,7 C 50 % 51 % 100 % 1020,9 hPa 0,0 l/m 5,7 km/h (1 Bft) 1,00 h 0,00 h 7,8 km/h (2 Bft)
04.09.2012 17:00 25,1 C 25,2 C 2,1 UV-I 4,2 C 50 % 55 % 98 % 1020,4 hPa 0,0 l/m 7,0 km/h (2 Bft) 0,97 h 0,00 h 9,2 km/h (2 Bft)
04.09.2012 18:00 24,8 C 24,5 C 0,6 UV-I 0,6 C 51 % 56 % 18 % 1020,0 hPa 0,0 l/m 6,1 km/h (2 Bft) 0,00 h 0,00 h 7,6 km/h (2 Bft)
04.09.2012 19:00 24,7 C 23,4 C 0,0 UV-I 0,0 C 51 % 58 % 0 % 1019,7 hPa 0,0 l/m 3,0 km/h (1 Bft) 0,00 h 0,00 h 4,0 km/h (1 Bft)
04.09.2012 20:00 24,5 C 21,1 C 0,0 UV-I 0,0 C 52 % 66 % 0 % 1019,9 hPa 0,0 l/m 0,0 km/h (0 Bft) 0,00 h 0,00 h 0,0 km/h (0 Bft)
04.09.2012 21:00 24,2 C 18,6 C 0,0 UV-I 0,0 C 53 % 75 % 0 % 1020,5 hPa 0,0 l/m 0,0 km/h (0 Bft) 0,00 h 0,00 h 0,0 km/h (0 Bft)
04.09.2012 22:00 24,1 C 16,9 C 0,0 UV-I 0,0 C 54 % 81 % 0 % 1020,7 hPa 0,0 l/m 0,0 km/h (0 Bft) 0,00 h 0,00 h 0,0 km/h (0 Bft)
04.09.2012 23:00 23,9 C 15,9 C 0,0 UV-I 0,0 C 54 % 86 % 0 % 1020,8 hPa 0,0 l/m 0,0 km/h (0 Bft) 0,00 h 0,00 h 0,0 km/h (0 Bft)
05.09.2012 00:00 23,8 C 16,1 C 0,0 UV-I 0,0 C 55 % 88 % 0 % 1021,1 hPa 0,0 l/m 0,0 km/h (0 Bft) 0,00 h 0,00 h 0,0 km/h (0 Bft)
05.09.2012 01:00 23,8 C 16,1 C 0,0 UV-I 0,0 C 55 % 88 % 0 % 1021,0 hPa 0,0 l/m 0,0 km/h (0 Bft) 0,00 h 0,00 h 0,0 km/h (0 Bft)
05.09.2012 02:00 23,6 C 15,3 C 0,0 UV-I 0,0 C 56 % 89 % 0 % 1021,0 hPa 0,0 l/m 0,0 km/h (0 Bft) 0,00 h 0,00 h 0,0 km/h (0 Bft)
05.09.2012 03:00 23,3 C 14,6 C 0,0 UV-I 0,0 C 56 % 91 % 0 % 1020,9 hPa 0,0 l/m 0,0 km/h (0 Bft) 0,00 h 0,00 h 0,0 km/h (0 Bft)
05.09.2012 04:00 23,2 C 14,7 C 0,0 UV-I 0,0 C 57 % 92 % 0 % 1020,9 hPa 0,0 l/m 0,1 km/h (0 Bft) 0,00 h 0,00 h 0,5 km/h (0 Bft)
05.09.2012 05:00 23,2 C 15,5 C 0,0 UV-I 0,0 C 58 % 94 % 0 % 1020,7 hPa 0,0 l/m 1,3 km/h (1 Bft) 0,00 h 0,00 h 2,4 km/h (1 Bft)
05.09.2012 06:00 23,2 C 16,1 C 0,0 UV-I 0,0 C 58 % 95 % 0 % 1020,9 hPa 0,0 l/m 3,1 km/h (1 Bft) 0,00 h 0,00 h 4,6 km/h (1 Bft)
05.09.2012 07:00 23,2 C 16,2 C 0,0 UV-I 0,0 C 58 % 95 % 0 % 1021,1 hPa 0,0 l/m 2,7 km/h (1 Bft) 0,00 h 0,00 h 3,6 km/h (1 Bft)
05.09.2012 08:00 23,3 C 16,5 C 0,0 UV-I 0,3 C 58 % 94 % 8 % 1021,3 hPa 0,0 l/m 4,8 km/h (1 Bft) 0,00 h 0,00 h 8,3 km/h (2 Bft)
05.09.2012 09:00 23,5 C 16,9 C 0,4 UV-I 1,1 C 58 % 89 % 30 % 1021,7 hPa 0,0 l/m 10,2 km/h (2 Bft) 0,00 h 0,00 h 14,0 km/h (3 Bft)
05.09.2012 10:00 23,5 C 17,1 C 2,4 UV-I 4,5 C 57 % 81 % 85 % 1022,3 hPa 0,0 l/m 12,0 km/h (2 Bft) 0,70 h 0,00 h 15,3 km/h (3 Bft)
05.09.2012 11:00 23,6 C 18,4 C 5,2 UV-I 6,6 C 56 % 69 % 100 % 1022,6 hPa 0,0 l/m 12,0 km/h (2 Bft) 1,00 h 0,00 h 16,5 km/h (3 Bft)
05.09.2012 12:00 24,0 C 19,5 C 4,4 UV-I 7,0 C 55 % 63 % 100 % 1022,4 hPa 0,0 l/m 11,8 km/h (2 Bft) 1,00 h 0,00 h 14,2 km/h (3 Bft)
05.09.2012 13:00 24,4 C 19,6 C 2,6 UV-I 4,3 C 53 % 61 % 100 % 1022,6 hPa 0,0 l/m 12,6 km/h (3 Bft) 1,00 h 0,00 h 17,2 km/h (3 Bft)
05.09.2012 14:00 24,5 C 19,6 C 3,2 UV-I 4,2 C 52 % 59 % 99 % 1022,6 hPa 0,0 l/m 11,1 km/h (2 Bft) 1,00 h 0,00 h 16,8 km/h (3 Bft)
05.09.2012 15:00 24,5 C 19,6 C 1,4 UV-I 2,8 C 51 % 59 % 72 % 1022,8 hPa 0,0 l/m 11,5 km/h (2 Bft) 0,47 h 0,00 h 15,8 km/h (3 Bft)
05.09.2012 16:00 24,4 C 19,4 C 1,0 UV-I 2,0 C 51 % 61 % 57 % 1022,8 hPa 0,0 l/m 8,4 km/h (2 Bft) 0,00 h 0,00 h 11,9 km/h (2 Bft)
05.09.2012 17:00 24,3 C 19,1 C 0,5 UV-I 1,2 C 51 % 62 % 34 % 1022,8 hPa 0,0 l/m 9,7 km/h (2 Bft) 0,00 h 0,00 h 12,7 km/h (3 Bft)
05.09.2012 18:00 24,3 C 18,8 C 0,1 UV-I 0,2 C 51 % 63 % 6 % 1023,1 hPa 0,0 l/m 6,4 km/h (2 Bft) 0,00 h 0,00 h 8,8 km/h (2 Bft)
05.09.2012 19:00 24,2 C 18,3 C 0,0 UV-I 0,0 C 51 % 65 % 0 % 1023,2 hPa 0,0 l/m 7,2 km/h (2 Bft) 0,00 h 0,00 h 9,3 km/h (2 Bft)
05.09.2012 20:00 23,9 C 17,4 C 0,0 UV-I 0,0 C 51 % 70 % 0 % 1023,7 hPa 0,0 l/m 5,8 km/h (2 Bft) 0,00 h 0,00 h 7,2 km/h (2 Bft)
05.09.2012 21:00 23,6 C 15,8 C 0,0 UV-I 0,0 C 52 % 76 % 0 % 1024,2 hPa 0,0 l/m 1,1 km/h (1 Bft) 0,00 h 0,00 h 2,0 km/h (1 Bft)
05.09.2012 22:00 23,2 C 14,1 C 0,0 UV-I 0,0 C 53 % 80 % 0 % 1024,8 hPa 0,0 l/m 0,1 km/h (0 Bft) 0,00 h 0,00 h 0,3 km/h (0 Bft)
05.09.2012 23:00 22,9 C 12,9 C 0,0 UV-I 0,0 C 54 % 84 % 0 % 1025,2 hPa 0,0 l/m 0,0 km/h (0 Bft) 0,00 h 0,00 h 0,0 km/h (0 Bft)
06.09.2012 00:00 22,6 C 11,8 C 0,0 UV-I 0,0 C 54 % 86 % 0 % 1025,6 hPa 0,0 l/m 0,0 km/h (0 Bft) 0,00 h 0,00 h 0,0 km/h (0 Bft)
06.09.2012 01:00 22,3 C 11,6 C 0,0 UV-I 0,0 C 54 % 89 % 0 % 1026,2 hPa 0,0 l/m 0,0 km/h (0 Bft) 0,00 h 0,00 h 0,2 km/h (0 Bft)
06.09.2012 02:00 22,2 C 11,5 C 0,0 UV-I 0,0 C 54 % 89 % 0 % 1026,6 hPa 0,0 l/m 0,0 km/h (0 Bft) 0,00 h 0,00 h 0,0 km/h (0 Bft)
06.09.2012 03:00 22,1 C 10,7 C 0,0 UV-I 0,0 C 54 % 90 % 0 % 1026,7 hPa 0,0 l/m 0,0 km/h (0 Bft) 0,00 h 0,00 h 0,0 km/h (0 Bft)
06.09.2012 04:00 22,0 C 10,1 C 0,0 UV-I 0,0 C 54 % 92 % 0 % 1026,9 hPa 0,0 l/m 0,0 km/h (0 Bft) 0,00 h 0,00 h 0,0 km/h (0 Bft)
06.09.2012 05:00 21,8 C 10,0 C 0,0 UV-I 0,0 C 54 % 92 % 0 % 1027,0 hPa 0,0 l/m 0,0 km/h (0 Bft) 0,00 h 0,03 h 0,0 km/h (0 Bft)
06.09.2012 06:00 21,7 C 9,5 C 0,0 UV-I 0,0 C 54 % 93 % 0 % 1026,9 hPa 0,0 l/m 0,0 km/h (0 Bft) 0,00 h 0,00 h 0,0 km/h (0 Bft)
06.09.2012 07:00 21,6 C 9,6 C 0,0 UV-I 0,0 C 54 % 94 % 0 % 1027,2 hPa 0,0 l/m 0,0 km/h (0 Bft) 0,00 h 0,00 h 0,0 km/h (0 Bft)
06.09.2012 08:00 21,6 C 10,7 C 0,0 UV-I 0,3 C 54 % 95 % 9 % 1027,6 hPa 0,0 l/m 0,0 km/h (0 Bft) 0,00 h 0,00 h 0,0 km/h (0 Bft)
06.09.2012 09:00 21,7 C 12,7 C 0,2 UV-I 2,4 C 54 % 94 % 69 % 1027,6 hPa 0,0 l/m 0,3 km/h (0 Bft) 0,32 h 0,00 h 1,1 km/h (1 Bft)
06.09.2012 10:00 22,2 C 15,4 C 0,9 UV-I 4,1 C 53 % 83 % 99 % 1028,0 hPa 0,0 l/m 0,8 km/h (0 Bft) 0,83 h 0,00 h 1,3 km/h (1 Bft)
06.09.2012 11:00 22,6 C 16,6 C 1,0 UV-I 3,7 C 52 % 70 % 98 % 1028,2 hPa 0,0 l/m 2,3 km/h (1 Bft) 1,00 h 0,00 h 4,3 km/h (1 Bft)
06.09.2012 12:00 23,1 C 17,1 C 1,6 UV-I 4,2 C 49 % 62 % 100 % 1028,2 hPa 0,0 l/m 3,3 km/h (1 Bft) 1,00 h 0,00 h 5,1 km/h (1 Bft)
06.09.2012 13:00 23,4 C 17,8 C 1,8 UV-I 4,7 C 47 % 59 % 100 % 1027,9 hPa 0,0 l/m 2,9 km/h (1 Bft) 1,00 h 0,00 h 3,6 km/h (1 Bft)
06.09.2012 14:00 24,2 C 18,9 C 3,4 UV-I 7,0 C 45 % 57 % 100 % 1028,6 hPa 0,0 l/m 4,5 km/h (1 Bft) 1,00 h 0,00 h 6,7 km/h (2 Bft)
06.09.2012 15:00 24,7 C 18,3 C 1,6 UV-I 3,3 C 44 % 58 % 92 % 1027,3 hPa 0,0 l/m 6,6 km/h (2 Bft) 0,87 h 0,00 h 9,6 km/h (2 Bft)
06.09.2012 16:00 25,3 C 18,8 C 3,2 UV-I 4,6 C 43 % 58 % 94 % 1025,8 hPa 0,0 l/m 7,1 km/h (2 Bft) 0,77 h 0,00 h 10,4 km/h (2 Bft)
06.09.2012 17:00 26,0 C 19,3 C 2,1 UV-I 4,8 C 42 % 56 % 100 % 1025,7 hPa 0,0 l/m 4,8 km/h (1 Bft) 1,00 h 0,00 h 6,7 km/h (2 Bft)
06.09.2012 18:00 25,2 C 18,5 C 0,4 UV-I 0,8 C 43 % 59 % 23 % 1026,1 hPa 0,0 l/m 3,9 km/h (1 Bft) 0,00 h 0,00 h 5,9 km/h (2 Bft)
06.09.2012 19:00 24,4 C 17,2 C 0,0 UV-I 0,0 C 44 % 63 % 0 % 1025,6 hPa 0,0 l/m 0,7 km/h (0 Bft) 0,00 h 0,00 h 0,9 km/h (0 Bft)
06.09.2012 20:00 23,5 C 15,0 C 0,0 UV-I 0,0 C 46 % 71 % 0 % 1025,2 hPa 0,0 l/m 0,0 km/h (0 Bft) 0,00 h 0,00 h 0,0 km/h (0 Bft)
06.09.2012 21:00 22,7 C 13,1 C 0,0 UV-I 0,0 C 48 % 79 % 0 % 1025,2 hPa 0,0 l/m 0,0 km/h (0 Bft) 0,00 h 0,00 h 0,0 km/h (0 Bft)
06.09.2012 22:00 22,1 C 11,9 C 0,0 UV-I 0,0 C 50 % 84 % 0 % 1025,1 hPa 0,0 l/m 0,0 km/h (0 Bft) 0,00 h 0,00 h 0,0 km/h (0 Bft)
06.09.2012 23:00 21,7 C 11,0 C 0,0 UV-I 0,0 C 50 % 87 % 0 % 1025,1 hPa 0,0 l/m 0,0 km/h (0 Bft) 0,00 h 0,00 h 0,0 km/h (0 Bft)
07.09.2012 00:00 21,3 C 10,4 C 0,0 UV-I 0,0 C 50 % 89 % 0 % 1025,1 hPa 0,0 l/m 0,0 km/h (0 Bft) 0,00 h 0,00 h 0,0 km/h (0 Bft)
07.09.2012 01:00 21,0 C 9,9 C 0,0 UV-I 0,0 C 50 % 91 % 0 % 1025,0 hPa 0,0 l/m 0,0 km/h (0 Bft) 0,00 h 0,03 h 0,0 km/h (0 Bft)
07.09.2012 02:00 20,8 C 9,7 C 0,0 UV-I 0,0 C 50 % 92 % 0 % 1025,0 hPa 0,0 l/m 0,0 km/h (0 Bft) 0,00 h 0,00 h 0,0 km/h (0 Bft)
07.09.2012 03:00 20,6 C 10,2 C 0,0 UV-I 0,0 C 50 % 91 % 0 % 1024,8 hPa 0,0 l/m 0,2 km/h (0 Bft) 0,00 h 0,00 h 0,6 km/h (0 Bft)
07.09.2012 04:00 20,4 C 10,4 C 0,0 UV-I 0,0 C 49 % 90 % 0 % 1024,6 hPa 0,0 l/m 0,1 km/h (0 Bft) 0,00 h 0,00 h 0,3 km/h (0 Bft)
07.09.2012 05:00 20,3 C 10,3 C 0,0 UV-I 0,0 C 49 % 90 % 0 % 1024,4 hPa 0,0 l/m 0,0 km/h (0 Bft) 0,00 h 0,00 h 0,1 km/h (0 Bft)
07.09.2012 06:00 20,1 C 10,3 C 0,0 UV-I 0,0 C 50 % 90 % 0 % 1023,9 hPa 0,0 l/m 0,4 km/h (0 Bft) 0,00 h 0,00 h 1,3 km/h (1 Bft)
07.09.2012 07:00 20,0 C 10,8 C 0,0 UV-I 0,0 C 50 % 89 % 0 % 1023,9 hPa 0,0 l/m 1,4 km/h (1 Bft) 0,00 h 0,00 h 2,2 km/h (1 Bft)
07.09.2012 08:00 20,0 C 11,9 C 0,1 UV-I 0,9 C 50 % 87 % 20 % 1024,1 hPa 0,0 l/m 3,2 km/h (1 Bft) 0,17 h 0,00 h 5,6 km/h (1 Bft)
07.09.2012 09:00 20,3 C 14,5 C 0,7 UV-I 7,2 C 51 % 81 % 100 % 1023,8 hPa 0,0 l/m 5,1 km/h (1 Bft) 1,00 h 0,00 h 7,5 km/h (2 Bft)
07.09.2012 10:00 20,7 C 17,0 C 2,4 UV-I 8,0 C 52 % 74 % 100 % 1023,9 hPa 0,0 l/m 4,6 km/h (1 Bft) 1,00 h 0,00 h 7,1 km/h (2 Bft)
07.09.2012 11:00 21,1 C 19,0 C 4,8 UV-I 7,9 C 52 % 68 % 100 % 1023,9 hPa 0,0 l/m 4,8 km/h (1 Bft) 1,00 h 0,00 h 6,2 km/h (2 Bft)
07.09.2012 12:00 21,4 C 20,9 C 4,4 UV-I 7,4 C 53 % 63 % 100 % 1023,6 hPa 0,0 l/m 5,0 km/h (1 Bft) 1,00 h 0,00 h 8,6 km/h (2 Bft)
07.09.2012 13:00 22,5 C 22,7 C 4,6 UV-I 6,9 C 51 % 56 % 100 % 1023,4 hPa 0,0 l/m 6,9 km/h (2 Bft) 1,00 h 0,00 h 9,7 km/h (2 Bft)
07.09.2012 14:00 24,0 C 23,8 C 3,6 UV-I 5,5 C 47 % 52 % 100 % 1024,5 hPa 0,0 l/m 6,3 km/h (2 Bft) 1,00 h 0,00 h 9,2 km/h (2 Bft)
07.09.2012 15:00 25,3 C 24,5 C 4,2 UV-I 5,3 C 45 % 52 % 100 % 1022,8 hPa 0,0 l/m 6,1 km/h (2 Bft) 1,00 h 0,00 h 8,8 km/h (2 Bft)
07.09.2012 16:00 26,8 C 25,4 C 4,4 UV-I 5,4 C 42 % 52 % 100 % 1022,0 hPa 0,0 l/m 5,8 km/h (2 Bft) 1,00 h 0,00 h 11,1 km/h (2 Bft)
07.09.2012 17:00 26,9 C 25,2 C 2,4 UV-I 4,2 C 42 % 54 % 98 % 1021,9 hPa 0,0 l/m 5,7 km/h (1 Bft) 0,97 h 0,00 h 7,4 km/h (2 Bft)
07.09.2012 18:00 25,8 C 24,2 C 0,5 UV-I 0,7 C 45 % 58 % 21 % 1022,2 hPa 0,0 l/m 3,3 km/h (1 Bft) 0,00 h 0,00 h 4,5 km/h (1 Bft)
07.09.2012 19:00 25,0 C 22,6 C 0,0 UV-I 0,0 C 47 % 62 % 0 % 1022,0 hPa 0,0 l/m 0,8 km/h (0 Bft) 0,00 h 0,00 h 0,4 km/h (0 Bft)
07.09.2012 20:00 24,3 C 20,6 C 0,0 UV-I 0,0 C 50 % 68 % 0 % 1022,2 hPa 0,0 l/m 0,0 km/h (0 Bft) 0,00 h 0,00 h 0,0 km/h (0 Bft)
07.09.2012 21:00 23,9 C 18,5 C 0,0 UV-I 0,0 C 53 % 76 % 0 % 1022,8 hPa 0,0 l/m 0,0 km/h (0 Bft) 0,00 h 0,00 h 0,0 km/h (0 Bft)
07.09.2012 22:00 23,5 C 17,1 C 0,0 UV-I 0,0 C 55 % 81 % 0 % 1023,1 hPa 0,0 l/m 0,0 km/h (0 Bft) 0,00 h 0,00 h 0,0 km/h (0 Bft)
07.09.2012 23:00 23,2 C 16,2 C 0,0 UV-I 0,0 C 56 % 85 % 0 % 1023,0 hPa 0,0 l/m 0,0 km/h (0 Bft) 0,00 h 0,00 h 0,0 km/h (0 Bft)
08.09.2012 00:00 23,0 C 15,2 C 0,0 UV-I 0,0 C 56 % 87 % 0 % 1022,9 hPa 0,0 l/m 0,0 km/h (0 Bft) 0,00 h 0,00 h 0,0 km/h (0 Bft)
08.09.2012 01:00 22,7 C 14,4 C 0,0 UV-I 0,0 C 56 % 89 % 0 % 1023,0 hPa 0,0 l/m 0,0 km/h (0 Bft) 0,00 h 0,00 h 0,0 km/h (0 Bft)
08.09.2012 02:00 22,5 C 13,7 C 0,0 UV-I 0,0 C 56 % 90 % 0 % 1022,6 hPa 0,0 l/m 0,0 km/h (0 Bft) 0,00 h 0,00 h 0,0 km/h (0 Bft)
08.09.2012 03:00 22,2 C 13,1 C 0,0 UV-I 0,0 C 56 % 91 % 0 % 1022,5 hPa 0,0 l/m 0,0 km/h (0 Bft) 0,00 h 0,03 h 0,0 km/h (0 Bft)
08.09.2012 04:00 21,9 C 12,7 C 0,0 UV-I 0,0 C 56 % 92 % 0 % 1022,2 hPa 0,0 l/m 0,0 km/h (0 Bft) 0,00 h 0,00 h 0,0 km/h (0 Bft)
08.09.2012 05:00 21,7 C 12,5 C 0,0 UV-I 0,0 C 57 % 93 % 0 % 1022,0 hPa 0,0 l/m 0,0 km/h (0 Bft) 0,00 h 0,00 h 0,0 km/h (0 Bft)
08.09.2012 06:00 21,6 C 12,2 C 0,0 UV-I 0,0 C 57 % 94 % 0 % 1021,8 hPa 0,0 l/m 0,0 km/h (0 Bft) 0,00 h 0,03 h 0,0 km/h (0 Bft)
08.09.2012 07:00 21,5 C 11,8 C 0,0 UV-I 0,0 C 56 % 94 % 0 % 1021,9 hPa 0,0 l/m 0,0 km/h (0 Bft) 0,00 h 0,00 h 0,0 km/h (0 Bft)
08.09.2012 08:00 21,4 C 12,7 C 0,1 UV-I 1,1 C 56 % 94 % 21 % 1022,2 hPa 0,0 l/m 0,2 km/h (0 Bft) 0,20 h 0,00 h 0,7 km/h (0 Bft)
08.09.2012 09:00 21,7 C 15,6 C 0,8 UV-I 9,0 C 56 % 92 % 100 % 1022,2 hPa 0,0 l/m 0,6 km/h (0 Bft) 1,00 h 0,00 h 1,4 km/h (1 Bft)
08.09.2012 10:00 22,1 C 19,2 C 2,4 UV-I 9,9 C 56 % 79 % 100 % 1022,2 hPa 0,0 l/m 0,9 km/h (0 Bft) 1,00 h 0,00 h 2,3 km/h (1 Bft)
08.09.2012 11:00 22,6 C 22,0 C 4,4 UV-I 8,3 C 55 % 64 % 100 % 1022,0 hPa 0,0 l/m 1,6 km/h (1 Bft) 1,00 h 0,00 h 2,8 km/h (1 Bft)
08.09.2012 12:00 23,0 C 24,0 C 4,3 UV-I 8,2 C 53 % 54 % 100 % 1021,5 hPa 0,0 l/m 2,3 km/h (1 Bft) 1,00 h 0,00 h 3,9 km/h (1 Bft)
08.09.2012 13:00 23,8 C 25,3 C 4,7 UV-I 7,6 C 52 % 51 % 100 % 1020,7 hPa 0,0 l/m 3,1 km/h (1 Bft) 1,00 h 0,00 h 5,7 km/h (1 Bft)
08.09.2012 14:00 25,2 C 26,4 C 4,7 UV-I 7,0 C 50 % 51 % 100 % 1022,2 hPa 0,0 l/m 3,6 km/h (1 Bft) 1,00 h 0,00 h 4,9 km/h (1 Bft)
08.09.2012 15:00 26,8 C 27,1 C 5,0 UV-I 6,5 C 46 % 50 % 100 % 1019,8 hPa 0,0 l/m 3,9 km/h (1 Bft) 1,00 h 0,00 h 5,9 km/h (2 Bft)
08.09.2012 16:00 28,0 C 27,2 C 4,7 UV-I 6,1 C 43 % 48 % 100 % 1018,5 hPa 0,0 l/m 3,8 km/h (1 Bft) 1,00 h 0,00 h 5,2 km/h (1 Bft)
08.09.2012 17:00 27,9 C 27,2 C 2,4 UV-I 4,9 C 43 % 45 % 98 % 1018,1 hPa 0,0 l/m 3,0 km/h (1 Bft) 0,97 h 0,00 h 5,0 km/h (1 Bft)
08.09.2012 18:00 26,6 C 25,9 C 0,4 UV-I 0,6 C 45 % 46 % 16 % 1018,2 hPa 0,0 l/m 4,5 km/h (1 Bft) 0,03 h 0,00 h 6,6 km/h (2 Bft)
08.09.2012 19:00 25,8 C 24,5 C 0,0 UV-I 0,0 C 46 % 50 % 0 % 1018,0 hPa 0,0 l/m 2,9 km/h (1 Bft) 0,00 h 0,00 h 2,9 km/h (1 Bft)
08.09.2012 20:00 25,2 C 21,7 C 0,0 UV-I 0,0 C 48 % 61 % 0 % 1018,1 hPa 0,0 l/m 0,0 km/h (0 Bft) 0,00 h 0,00 h 0,0 km/h (0 Bft)
08.09.2012 21:00 24,8 C 18,9 C 0,0 UV-I 0,0 C 50 % 70 % 0 % 1018,2 hPa 0,0 l/m 0,0 km/h (0 Bft) 0,00 h 0,00 h 0,0 km/h (0 Bft)
08.09.2012 22:00 24,4 C 17,0 C 0,0 UV-I 0,0 C 52 % 77 % 0 % 1018,2 hPa 0,0 l/m 0,0 km/h (0 Bft) 0,00 h 0,00 h 0,0 km/h (0 Bft)
08.09.2012 23:00 24,1 C 15,6 C 0,0 UV-I 0,0 C 53 % 82 % 0 % 1018,0 hPa 0,0 l/m 0,0 km/h (0 Bft) 0,00 h 0,00 h 0,0 km/h (0 Bft)
09.09.2012 00:00 23,8 C 14,7 C 0,0 UV-I 0,0 C 53 % 85 % 0 % 1017,9 hPa 0,0 l/m 0,0 km/h (0 Bft) 0,00 h 0,00 h 0,0 km/h (0 Bft)
09.09.2012 01:00 23,6 C 14,0 C 0,0 UV-I 0,0 C 53 % 87 % 0 % 1017,7 hPa 0,0 l/m 0,0 km/h (0 Bft) 0,00 h 0,00 h 0,0 km/h (0 Bft)
09.09.2012 02:00 23,3 C 13,3 C 0,0 UV-I 0,0 C 54 % 89 % 0 % 1017,3 hPa 0,0 l/m 0,0 km/h (0 Bft) 0,00 h 0,03 h 0,0 km/h (0 Bft)
09.09.2012 03:00 23,1 C 12,7 C 0,0 UV-I 0,0 C 54 % 90 % 0 % 1017,0 hPa 0,0 l/m 0,0 km/h (0 Bft) 0,00 h 0,00 h 0,0 km/h (0 Bft)
09.09.2012 04:00 22,8 C 12,5 C 0,0 UV-I 0,0 C 54 % 92 % 0 % 1016,6 hPa 0,0 l/m 0,0 km/h (0 Bft) 0,00 h 0,00 h 0,0 km/h (0 Bft)
09.09.2012 05:00 22,6 C 12,8 C 0,0 UV-I 0,0 C 55 % 93 % 0 % 1016,0 hPa 0,0 l/m 0,0 km/h (0 Bft) 0,00 h 0,00 h 0,0 km/h (0 Bft)
09.09.2012 06:00 22,5 C 12,8 C 0,0 UV-I 0,0 C 55 % 93 % 0 % 1015,5 hPa 0,0 l/m 1,1 km/h (0 Bft) 0,00 h 0,00 h 3,4 km/h (1 Bft)
09.09.2012 07:00 22,4 C 13,7 C 0,0 UV-I 0,0 C 53 % 91 % 0 % 1015,4 hPa 0,0 l/m 5,5 km/h (1 Bft) 0,00 h 0,00 h 8,1 km/h (2 Bft)
09.09.2012 08:00 22,4 C 14,8 C 0,1 UV-I 1,0 C 53 % 88 % 21 % 1015,3 hPa 0,0 l/m 2,4 km/h (1 Bft) 0,20 h 0,00 h 3,0 km/h (1 Bft)
09.09.2012 09:00 22,6 C 17,5 C 0,8 UV-I 7,4 C 54 % 81 % 100 % 1015,0 hPa 0,0 l/m 4,2 km/h (1 Bft) 1,00 h 0,00 h 6,8 km/h (2 Bft)
09.09.2012 10:00 22,8 C 21,0 C 2,4 UV-I 7,1 C 54 % 70 % 100 % 1014,7 hPa 0,0 l/m 6,7 km/h (2 Bft) 1,00 h 0,00 h 10,2 km/h (2 Bft)
09.09.2012 11:00 23,1 C 24,0 C 5,1 UV-I 6,8 C 54 % 62 % 100 % 1014,4 hPa 0,0 l/m 6,1 km/h (2 Bft) 1,00 h 0,00 h 8,6 km/h (2 Bft)
09.09.2012 12:00 23,7 C 26,4 C 4,5 UV-I 6,1 C 54 % 55 % 100 % 1013,7 hPa 0,0 l/m 6,5 km/h (2 Bft) 1,00 h 0,00 h 9,2 km/h (2 Bft)
09.09.2012 13:00 24,6 C 28,5 C 4,6 UV-I 5,5 C 53 % 49 % 100 % 1012,9 hPa 0,0 l/m 7,5 km/h (2 Bft) 1,00 h 0,00 h 9,5 km/h (2 Bft)
09.09.2012 14:00 26,0 C 30,2 C 4,2 UV-I 5,7 C 50 % 44 % 100 % 1014,0 hPa 0,0 l/m 5,4 km/h (1 Bft) 1,00 h 0,00 h 8,6 km/h (2 Bft)
09.09.2012 15:00 27,1 C 31,2 C 4,5 UV-I 5,7 C 46 % 39 % 100 % 1011,7 hPa 0,0 l/m 5,3 km/h (1 Bft) 1,00 h 0,00 h 7,9 km/h (2 Bft)
09.09.2012 16:00 27,0 C 31,2 C 4,6 UV-I 4,5 C 44 % 34 % 100 % 1011,4 hPa 0,0 l/m 7,5 km/h (2 Bft) 1,00 h 0,00 h 10,0 km/h (2 Bft)
09.09.2012 17:00 26,4 C 30,4 C 2,4 UV-I 3,7 C 42 % 33 % 94 % 1011,0 hPa 0,0 l/m 5,3 km/h (1 Bft) 0,87 h 0,00 h 6,3 km/h (2 Bft)
09.09.2012 18:00 26,0 C 29,0 C 0,5 UV-I 0,5 C 42 % 38 % 14 % 1010,8 hPa 0,0 l/m 4,0 km/h (1 Bft) 0,00 h 0,00 h 5,9 km/h (2 Bft)
09.09.2012 19:00 25,8 C 27,2 C 0,0 UV-I 0,0 C 44 % 44 % 0 % 1011,0 hPa 0,0 l/m 0,7 km/h (0 Bft) 0,00 h 0,00 h 1,6 km/h (1 Bft)
09.09.2012 20:00 25,5 C 25,3 C 0,0 UV-I 0,0 C 45 % 47 % 0 % 1011,0 hPa 0,0 l/m 0,7 km/h (0 Bft) 0,00 h 0,00 h 0,8 km/h (0 Bft)
09.09.2012 21:00 25,3 C 22,7 C 0,0 UV-I 0,0 C 46 % 54 % 0 % 1011,6 hPa 0,0 l/m 0,0 km/h (0 Bft) 0,00 h 0,00 h 0,0 km/h (0 Bft)
09.09.2012 22:00 25,0 C 20,8 C 0,0 UV-I 0,0 C 48 % 59 % 0 % 1011,8 hPa 0,0 l/m 0,0 km/h (0 Bft) 0,00 h 0,00 h 0,0 km/h (0 Bft)
09.09.2012 23:00 24,8 C 19,1 C 0,0 UV-I 0,0 C 49 % 63 % 0 % 1011,8 hPa 0,0 l/m 0,0 km/h (0 Bft) 0,00 h 0,00 h 0,0 km/h (0 Bft)
Min-Datum _ 07.09.12 06.09.12 03.09.12 03.09.12 06.09.12 09.09.12 03.09.12 09.09.12 - 03.09.12 - - 03.09.12
_ Min-Zeit 06:30 06:58 00:00 00:00 17:20 16:54 00:00 15:28 - 00:00 - - 00:00
Minimum _ 20,0 C 9,2 C 0,0 UV-I 0,0 C 41 % 31 % 0 % 1010,8 hPa - 0,0 km/h (0 Bft) - - 0,0 km/h (0 Bft)
Max-Datum _ 08.09.12 09.09.12 05.09.12 04.09.12 04.09.12 03.09.12 03.09.12 06.09.12 03.09.12 05.09.12 03.09.12 03.09.12 05.09.12
_ Max-Zeit 16:58 15:44 12:14 10:14 09:18 09:22 10:08 14:30 00:00 13:32 09:54 23:22 15:20
Maximum _ 28,4 C 31,5 C 5,8 UV-I 10,6 C 58 % 97 % 100 % 1029,6 hPa 0,0 l/m 16,5 km/h
W-SW (3 Bft)
0,03 h 0,03 h 41,8 km/h
W-SW (6 Bft)
Durchschnitt _ 23,4 C 17,5 C 1,1 UV-I 2,2 C 52 % 76 % 37 % 1022,0 hPa #0,0 l/m 2,5 km/h (1 Bft) #55:43 h #14 min. 3,6 km/h (1 Bft)
© 2012 W. Hausmann